sensor_id;sensor_type;location;lat;lon;timestamp;P1;durP1;ratioP1;P2;durP2;ratioP2
18249;SDS011;27980;52.126;5.572;2023-03-05T00:01:08;13.00;;;2.90;;
18249;SDS011;27980;52.126;5.572;2023-03-05T00:03:35;10.65;;;2.50;;
18249;SDS011;27980;52.126;5.572;2023-03-05T00:06:02;5.18;;;2.28;;
18249;SDS011;27980;52.126;5.572;2023-03-05T00:08:30;10.27;;;2.30;;
18249;SDS011;27980;52.126;5.572;2023-03-05T00:10:58;6.07;;;2.08;;
18249;SDS011;27980;52.126;5.572;2023-03-05T00:13:24;10.75;;;2.78;;
18249;SDS011;27980;52.126;5.572;2023-03-05T00:15:51;9.57;;;2.08;;
18249;SDS011;27980;52.126;5.572;2023-03-05T00:18:17;8.30;;;2.38;;
18249;SDS011;27980;52.126;5.572;2023-03-05T00:20:43;9.52;;;2.30;;
18249;SDS011;27980;52.126;5.572;2023-03-05T00:23:10;8.20;;;2.30;;
18249;SDS011;27980;52.126;5.572;2023-03-05T00:25:38;9.77;;;2.20;;
18249;SDS011;27980;52.126;5.572;2023-03-05T00:28:05;7.65;;;2.20;;
18249;SDS011;27980;52.126;5.572;2023-03-05T00:30:32;10.68;;;3.20;;
18249;SDS011;27980;52.126;5.572;2023-03-05T00:32:59;9.10;;;2.47;;
18249;SDS011;27980;52.126;5.572;2023-03-05T00:35:26;8.02;;;2.30;;
18249;SDS011;27980;52.126;5.572;2023-03-05T00:37:52;7.97;;;2.25;;
18249;SDS011;27980;52.126;5.572;2023-03-05T00:40:19;6.35;;;2.35;;
18249;SDS011;27980;52.126;5.572;2023-03-05T00:42:47;5.13;;;2.30;;
18249;SDS011;27980;52.126;5.572;2023-03-05T00:45:13;8.13;;;2.10;;
18249;SDS011;27980;52.126;5.572;2023-03-05T00:47:40;5.38;;;2.05;;
18249;SDS011;27980;52.126;5.572;2023-03-05T00:50:06;7.70;;;2.30;;
18249;SDS011;27980;52.126;5.572;2023-03-05T00:52:33;9.15;;;2.17;;
18249;SDS011;27980;52.126;5.572;2023-03-05T00:54:59;9.25;;;2.30;;
18249;SDS011;27980;52.126;5.572;2023-03-05T00:57:26;6.00;;;2.47;;
18249;SDS011;27980;52.126;5.572;2023-03-05T00:59:53;6.03;;;2.45;;
18249;SDS011;27980;52.126;5.572;2023-03-05T01:02:20;5.82;;;2.83;;
18249;SDS011;27980;52.126;5.572;2023-03-05T01:04:46;9.52;;;2.72;;
18249;SDS011;27980;52.126;5.572;2023-03-05T01:07:14;7.90;;;3.08;;
18249;SDS011;27980;52.126;5.572;2023-03-05T01:09:40;7.97;;;2.40;;
18249;SDS011;27980;52.126;5.572;2023-03-05T01:12:07;7.22;;;2.60;;
18249;SDS011;27980;52.126;5.572;2023-03-05T01:14:34;7.18;;;2.67;;
18249;SDS011;27980;52.126;5.572;2023-03-05T01:17:02;7.90;;;2.20;;
18249;SDS011;27980;52.126;5.572;2023-03-05T01:19:29;9.65;;;2.72;;
18249;SDS011;27980;52.126;5.572;2023-03-05T01:21:55;8.68;;;2.40;;
18249;SDS011;27980;52.126;5.572;2023-03-05T01:24:21;7.20;;;2.10;;
18249;SDS011;27980;52.126;5.572;2023-03-05T01:26:48;6.85;;;2.33;;
18249;SDS011;27980;52.126;5.572;2023-03-05T01:29:15;8.10;;;2.80;;
18249;SDS011;27980;52.126;5.572;2023-03-05T01:31:41;9.30;;;2.50;;
18249;SDS011;27980;52.126;5.572;2023-03-05T01:34:09;6.80;;;2.42;;
18249;SDS011;27980;52.126;5.572;2023-03-05T01:36:35;9.38;;;2.97;;
18249;SDS011;27980;52.126;5.572;2023-03-05T01:39:02;5.93;;;2.55;;
18249;SDS011;27980;52.126;5.572;2023-03-05T01:41:28;6.90;;;2.60;;
18249;SDS011;27980;52.126;5.572;2023-03-05T01:43:55;8.63;;;3.13;;
18249;SDS011;27980;52.126;5.572;2023-03-05T01:46:25;12.32;;;3.25;;
18249;SDS011;27980;52.126;5.572;2023-03-05T01:48:53;12.98;;;3.25;;
18249;SDS011;27980;52.126;5.572;2023-03-05T01:51:21;11.43;;;3.30;;
18249;SDS011;27980;52.126;5.572;2023-03-05T01:53:49;8.98;;;3.55;;
18249;SDS011;27980;52.126;5.572;2023-03-05T01:56:15;10.00;;;3.20;;
18249;SDS011;27980;52.126;5.572;2023-03-05T01:58:44;7.30;;;3.70;;
18249;SDS011;27980;52.126;5.572;2023-03-05T02:01:11;10.77;;;3.60;;
18249;SDS011;27980;52.126;5.572;2023-03-05T02:03:37;6.32;;;3.25;;
18249;SDS011;27980;52.126;5.572;2023-03-05T02:06:04;11.80;;;3.58;;
18249;SDS011;27980;52.126;5.572;2023-03-05T02:08:32;9.68;;;4.13;;
18249;SDS011;27980;52.126;5.572;2023-03-05T02:10:58;10.68;;;3.80;;
18249;SDS011;27980;52.126;5.572;2023-03-05T02:13:26;9.00;;;3.90;;
18249;SDS011;27980;52.126;5.572;2023-03-05T02:15:53;9.85;;;3.80;;
18249;SDS011;27980;52.126;5.572;2023-03-05T02:18:21;9.23;;;3.50;;
18249;SDS011;27980;52.126;5.572;2023-03-05T02:20:49;9.25;;;3.72;;
18249;SDS011;27980;52.126;5.572;2023-03-05T02:23:17;8.10;;;3.58;;
18249;SDS011;27980;52.126;5.572;2023-03-05T02:25:44;8.00;;;3.05;;
18249;SDS011;27980;52.126;5.572;2023-03-05T02:28:11;7.88;;;3.30;;
18249;SDS011;27980;52.126;5.572;2023-03-05T02:30:42;13.20;;;3.38;;
18249;SDS011;27980;52.126;5.572;2023-03-05T02:33:08;10.90;;;3.30;;
18249;SDS011;27980;52.126;5.572;2023-03-05T02:35:35;8.68;;;3.33;;
18249;SDS011;27980;52.126;5.572;2023-03-05T02:38:02;9.48;;;3.47;;
18249;SDS011;27980;52.126;5.572;2023-03-05T02:40:30;8.25;;;3.38;;
18249;SDS011;27980;52.126;5.572;2023-03-05T02:42:57;9.00;;;3.30;;
18249;SDS011;27980;52.126;5.572;2023-03-05T02:45:23;10.05;;;3.25;;
18249;SDS011;27980;52.126;5.572;2023-03-05T02:47:50;7.43;;;3.20;;
18249;SDS011;27980;52.126;5.572;2023-03-05T02:50:16;9.77;;;3.50;;
18249;SDS011;27980;52.126;5.572;2023-03-05T02:52:43;9.77;;;3.20;;
18249;SDS011;27980;52.126;5.572;2023-03-05T02:55:09;8.52;;;3.58;;
18249;SDS011;27980;52.126;5.572;2023-03-05T02:57:37;11.23;;;4.03;;
18249;SDS011;27980;52.126;5.572;2023-03-05T03:00:04;11.45;;;3.92;;
18249;SDS011;27980;52.126;5.572;2023-03-05T03:02:31;9.07;;;4.18;;
18249;SDS011;27980;52.126;5.572;2023-03-05T03:04:57;11.30;;;4.78;;
18249;SDS011;27980;52.126;5.572;2023-03-05T03:07:23;13.93;;;4.55;;
18249;SDS011;27980;52.126;5.572;2023-03-05T03:09:50;12.40;;;4.20;;
18249;SDS011;27980;52.126;5.572;2023-03-05T03:12:16;10.48;;;3.85;;
18249;SDS011;27980;52.126;5.572;2023-03-05T03:14:44;11.73;;;4.47;;
18249;SDS011;27980;52.126;5.572;2023-03-05T03:17:11;13.45;;;4.15;;
18249;SDS011;27980;52.126;5.572;2023-03-05T03:19:38;8.98;;;3.88;;
18249;SDS011;27980;52.126;5.572;2023-03-05T03:22:05;11.82;;;4.18;;
18249;SDS011;27980;52.126;5.572;2023-03-05T03:24:32;8.10;;;3.70;;
18249;SDS011;27980;52.126;5.572;2023-03-05T03:26:59;8.85;;;4.55;;
18249;SDS011;27980;52.126;5.572;2023-03-05T03:29:26;9.00;;;3.85;;
18249;SDS011;27980;52.126;5.572;2023-03-05T03:31:55;9.27;;;3.97;;
18249;SDS011;27980;52.126;5.572;2023-03-05T03:34:21;9.88;;;3.88;;
18249;SDS011;27980;52.126;5.572;2023-03-05T03:36:48;9.00;;;3.70;;
18249;SDS011;27980;52.126;5.572;2023-03-05T03:39:17;7.65;;;3.55;;
18249;SDS011;27980;52.126;5.572;2023-03-05T03:41:44;12.23;;;3.95;;
18249;SDS011;27980;52.126;5.572;2023-03-05T03:44:11;7.20;;;3.40;;
18249;SDS011;27980;52.126;5.572;2023-03-05T03:46:39;8.07;;;4.00;;
18249;SDS011;27980;52.126;5.572;2023-03-05T03:49:10;9.07;;;3.38;;
18249;SDS011;27980;52.126;5.572;2023-03-05T03:51:37;12.63;;;4.80;;
18249;SDS011;27980;52.126;5.572;2023-03-05T03:54:04;9.93;;;3.28;;
18249;SDS011;27980;52.126;5.572;2023-03-05T03:56:30;10.07;;;3.80;;
18249;SDS011;27980;52.126;5.572;2023-03-05T03:58:57;9.20;;;3.78;;
18249;SDS011;27980;52.126;5.572;2023-03-05T04:01:24;7.97;;;3.67;;
18249;SDS011;27980;52.126;5.572;2023-03-05T04:03:50;10.73;;;3.42;;
18249;SDS011;27980;52.126;5.572;2023-03-05T04:06:18;9.88;;;3.60;;
18249;SDS011;27980;52.126;5.572;2023-03-05T04:08:44;6.18;;;3.40;;
18249;SDS011;27980;52.126;5.572;2023-03-05T04:11:11;8.27;;;4.10;;
18249;SDS011;27980;52.126;5.572;2023-03-05T04:13:37;13.75;;;3.85;;
18249;SDS011;27980;52.126;5.572;2023-03-05T04:16:06;10.02;;;3.30;;
18249;SDS011;27980;52.126;5.572;2023-03-05T04:18:32;9.55;;;3.63;;
18249;SDS011;27980;52.126;5.572;2023-03-05T04:20:59;9.82;;;3.40;;
18249;SDS011;27980;52.126;5.572;2023-03-05T04:23:27;8.90;;;3.42;;
18249;SDS011;27980;52.126;5.572;2023-03-05T04:25:53;11.27;;;3.35;;
18249;SDS011;27980;52.126;5.572;2023-03-05T04:28:20;10.13;;;3.55;;
18249;SDS011;27980;52.126;5.572;2023-03-05T04:30:46;10.50;;;3.22;;
18249;SDS011;27980;52.126;5.572;2023-03-05T04:33:12;9.63;;;3.42;;
18249;SDS011;27980;52.126;5.572;2023-03-05T04:35:39;5.93;;;2.88;;
18249;SDS011;27980;52.126;5.572;2023-03-05T04:38:06;7.22;;;3.17;;
18249;SDS011;27980;52.126;5.572;2023-03-05T04:40:34;7.85;;;2.97;;
18249;SDS011;27980;52.126;5.572;2023-03-05T04:43:01;7.47;;;3.25;;
18249;SDS011;27980;52.126;5.572;2023-03-05T04:45:27;7.70;;;3.28;;
18249;SDS011;27980;52.126;5.572;2023-03-05T04:47:54;6.55;;;2.75;;
18249;SDS011;27980;52.126;5.572;2023-03-05T04:50:20;7.18;;;3.40;;
18249;SDS011;27980;52.126;5.572;2023-03-05T04:52:48;6.25;;;2.97;;
18249;SDS011;27980;52.126;5.572;2023-03-05T04:55:15;5.47;;;3.40;;
18249;SDS011;27980;52.126;5.572;2023-03-05T04:57:44;5.55;;;2.60;;
18249;SDS011;27980;52.126;5.572;2023-03-05T05:00:12;7.15;;;3.03;;
18249;SDS011;27980;52.126;5.572;2023-03-05T05:02:39;7.88;;;2.80;;
18249;SDS011;27980;52.126;5.572;2023-03-05T05:05:06;6.22;;;2.85;;
18249;SDS011;27980;52.126;5.572;2023-03-05T05:07:34;6.72;;;2.95;;
18249;SDS011;27980;52.126;5.572;2023-03-05T05:10:00;9.77;;;3.03;;
18249;SDS011;27980;52.126;5.572;2023-03-05T05:12:27;6.55;;;2.80;;
18249;SDS011;27980;52.126;5.572;2023-03-05T05:14:57;9.32;;;3.13;;
18249;SDS011;27980;52.126;5.572;2023-03-05T05:17:23;5.88;;;2.42;;
18249;SDS011;27980;52.126;5.572;2023-03-05T05:19:49;4.05;;;2.67;;
18249;SDS011;27980;52.126;5.572;2023-03-05T05:22:16;8.88;;;2.63;;
18249;SDS011;27980;52.126;5.572;2023-03-05T05:24:43;5.47;;;2.53;;
18249;SDS011;27980;52.126;5.572;2023-03-05T05:27:09;5.72;;;2.70;;
18249;SDS011;27980;52.126;5.572;2023-03-05T05:29:36;6.63;;;3.00;;
18249;SDS011;27980;52.126;5.572;2023-03-05T05:32:04;4.88;;;3.10;;
18249;SDS011;27980;52.126;5.572;2023-03-05T05:34:31;8.32;;;2.92;;
18249;SDS011;27980;52.126;5.572;2023-03-05T05:36:57;8.07;;;2.65;;
18249;SDS011;27980;52.126;5.572;2023-03-05T05:39:24;5.88;;;2.72;;
18249;SDS011;27980;52.126;5.572;2023-03-05T05:41:51;6.53;;;2.70;;
18249;SDS011;27980;52.126;5.572;2023-03-05T05:44:18;8.18;;;2.75;;
18249;SDS011;27980;52.126;5.572;2023-03-05T05:46:45;7.45;;;2.80;;
18249;SDS011;27980;52.126;5.572;2023-03-05T05:49:13;8.13;;;2.50;;
18249;SDS011;27980;52.126;5.572;2023-03-05T05:51:39;7.70;;;2.75;;
18249;SDS011;27980;52.126;5.572;2023-03-05T05:54:06;3.22;;;2.30;;
18249;SDS011;27980;52.126;5.572;2023-03-05T05:56:32;9.20;;;2.42;;
18249;SDS011;27980;52.126;5.572;2023-03-05T05:58:59;5.93;;;2.60;;
18249;SDS011;27980;52.126;5.572;2023-03-05T06:01:26;6.60;;;2.58;;
18249;SDS011;27980;52.126;5.572;2023-03-05T06:03:53;7.18;;;2.80;;
18249;SDS011;27980;52.126;5.572;2023-03-05T06:06:21;4.18;;;2.70;;
18249;SDS011;27980;52.126;5.572;2023-03-05T06:08:48;8.88;;;2.72;;
18249;SDS011;27980;52.126;5.572;2023-03-05T06:11:14;8.30;;;2.75;;
18249;SDS011;27980;52.126;5.572;2023-03-05T06:13:41;8.00;;;2.80;;
18249;SDS011;27980;52.126;5.572;2023-03-05T06:16:09;10.23;;;2.60;;
18249;SDS011;27980;52.126;5.572;2023-03-05T06:18:36;6.55;;;3.28;;
18249;SDS011;27980;52.126;5.572;2023-03-05T06:21:06;8.73;;;3.30;;
18249;SDS011;27980;52.126;5.572;2023-03-05T06:23:34;9.07;;;3.30;;
18249;SDS011;27980;52.126;5.572;2023-03-05T06:26:01;9.55;;;3.10;;
18249;SDS011;27980;52.126;5.572;2023-03-05T06:28:27;5.15;;;3.00;;
18249;SDS011;27980;52.126;5.572;2023-03-05T06:31:00;8.82;;;3.00;;
18249;SDS011;27980;52.126;5.572;2023-03-05T06:33:26;6.85;;;3.05;;
18249;SDS011;27980;52.126;5.572;2023-03-05T06:35:53;8.43;;;2.78;;
18249;SDS011;27980;52.126;5.572;2023-03-05T06:38:20;6.68;;;3.15;;
18249;SDS011;27980;52.126;5.572;2023-03-05T06:40:47;5.78;;;3.60;;
18249;SDS011;27980;52.126;5.572;2023-03-05T06:43:14;11.95;;;3.80;;
18249;SDS011;27980;52.126;5.572;2023-03-05T06:45:40;7.07;;;3.58;;
18249;SDS011;27980;52.126;5.572;2023-03-05T06:48:06;5.90;;;2.88;;
18249;SDS011;27980;52.126;5.572;2023-03-05T06:50:33;7.65;;;2.80;;
18249;SDS011;27980;52.126;5.572;2023-03-05T06:53:00;7.85;;;3.28;;
18249;SDS011;27980;52.126;5.572;2023-03-05T06:55:26;6.00;;;2.75;;
18249;SDS011;27980;52.126;5.572;2023-03-05T06:57:54;7.53;;;3.08;;
18249;SDS011;27980;52.126;5.572;2023-03-05T07:00:21;5.82;;;3.20;;
18249;SDS011;27980;52.126;5.572;2023-03-05T07:02:48;10.98;;;3.80;;
18249;SDS011;27980;52.126;5.572;2023-03-05T07:05:15;5.03;;;3.50;;
18249;SDS011;27980;52.126;5.572;2023-03-05T07:07:41;8.80;;;3.80;;
18249;SDS011;27980;52.126;5.572;2023-03-05T07:10:08;6.32;;;3.33;;
18249;SDS011;27980;52.126;5.572;2023-03-05T07:12:35;6.68;;;3.30;;
18249;SDS011;27980;52.126;5.572;2023-03-05T07:15:04;4.35;;;3.25;;
18249;SDS011;27980;52.126;5.572;2023-03-05T07:17:31;5.15;;;3.47;;
18249;SDS011;27980;52.126;5.572;2023-03-05T07:19:57;8.93;;;3.22;;
18249;SDS011;27980;52.126;5.572;2023-03-05T07:22:24;7.43;;;3.28;;
18249;SDS011;27980;52.126;5.572;2023-03-05T07:24:50;6.07;;;3.28;;
18249;SDS011;27980;52.126;5.572;2023-03-05T07:27:19;8.43;;;2.97;;
18249;SDS011;27980;52.126;5.572;2023-03-05T07:29:47;6.85;;;3.15;;
18249;SDS011;27980;52.126;5.572;2023-03-05T07:32:15;5.20;;;2.97;;
18249;SDS011;27980;52.126;5.572;2023-03-05T07:34:41;7.15;;;3.38;;
18249;SDS011;27980;52.126;5.572;2023-03-05T07:37:07;5.10;;;3.10;;
18249;SDS011;27980;52.126;5.572;2023-03-05T07:39:34;6.13;;;3.00;;
18249;SDS011;27980;52.126;5.572;2023-03-05T07:42:00;7.50;;;2.50;;
18249;SDS011;27980;52.126;5.572;2023-03-05T07:44:27;4.03;;;2.40;;
18249;SDS011;27980;52.126;5.572;2023-03-05T07:46:53;4.82;;;2.70;;
18249;SDS011;27980;52.126;5.572;2023-03-05T07:49:21;5.13;;;2.85;;
18249;SDS011;27980;52.126;5.572;2023-03-05T07:51:47;4.03;;;2.67;;
18249;SDS011;27980;52.126;5.572;2023-03-05T07:54:14;5.53;;;2.80;;
18249;SDS011;27980;52.126;5.572;2023-03-05T07:56:40;7.18;;;2.60;;
18249;SDS011;27980;52.126;5.572;2023-03-05T07:59:10;4.55;;;2.70;;
18249;SDS011;27980;52.126;5.572;2023-03-05T08:01:36;6.65;;;2.78;;
18249;SDS011;27980;52.126;5.572;2023-03-05T08:04:03;5.65;;;2.60;;
18249;SDS011;27980;52.126;5.572;2023-03-05T08:06:31;5.53;;;2.65;;
18249;SDS011;27980;52.126;5.572;2023-03-05T08:08:58;5.05;;;2.88;;
18249;SDS011;27980;52.126;5.572;2023-03-05T08:11:24;7.90;;;2.60;;
18249;SDS011;27980;52.126;5.572;2023-03-05T08:13:52;9.68;;;2.75;;
18249;SDS011;27980;52.126;5.572;2023-03-05T08:16:19;4.53;;;2.72;;
18249;SDS011;27980;52.126;5.572;2023-03-05T08:18:46;5.35;;;3.13;;
18249;SDS011;27980;52.126;5.572;2023-03-05T08:21:14;6.88;;;3.33;;
18249;SDS011;27980;52.126;5.572;2023-03-05T08:23:42;6.50;;;3.15;;
18249;SDS011;27980;52.126;5.572;2023-03-05T08:26:10;6.32;;;2.78;;
18249;SDS011;27980;52.126;5.572;2023-03-05T08:28:36;5.25;;;2.97;;
18249;SDS011;27980;52.126;5.572;2023-03-05T08:31:06;5.93;;;2.65;;
18249;SDS011;27980;52.126;5.572;2023-03-05T08:33:35;4.25;;;2.20;;
18249;SDS011;27980;52.126;5.572;2023-03-05T08:36:01;4.88;;;2.25;;
18249;SDS011;27980;52.126;5.572;2023-03-05T08:38:28;5.30;;;2.40;;
18249;SDS011;27980;52.126;5.572;2023-03-05T08:40:56;6.40;;;2.55;;
18249;SDS011;27980;52.126;5.572;2023-03-05T08:43:23;4.15;;;2.40;;
18249;SDS011;27980;52.126;5.572;2023-03-05T08:45:50;3.42;;;2.33;;
18249;SDS011;27980;52.126;5.572;2023-03-05T08:48:17;3.05;;;2.20;;
18249;SDS011;27980;52.126;5.572;2023-03-05T08:50:43;4.82;;;2.20;;
18249;SDS011;27980;52.126;5.572;2023-03-05T08:53:10;4.78;;;2.30;;
18249;SDS011;27980;52.126;5.572;2023-03-05T08:55:38;7.15;;;2.00;;
18249;SDS011;27980;52.126;5.572;2023-03-05T08:58:07;3.47;;;2.00;;
18249;SDS011;27980;52.126;5.572;2023-03-05T09:00:33;3.33;;;1.95;;
18249;SDS011;27980;52.126;5.572;2023-03-05T09:03:00;2.63;;;1.60;;
18249;SDS011;27980;52.126;5.572;2023-03-05T09:05:26;5.00;;;1.90;;
18249;SDS011;27980;52.126;5.572;2023-03-05T09:07:52;3.55;;;1.60;;
18249;SDS011;27980;52.126;5.572;2023-03-05T09:10:19;3.17;;;1.65;;
18249;SDS011;27980;52.126;5.572;2023-03-05T09:12:46;2.22;;;1.52;;
18249;SDS011;27980;52.126;5.572;2023-03-05T09:15:15;1.67;;;1.50;;
18249;SDS011;27980;52.126;5.572;2023-03-05T09:17:41;4.22;;;1.88;;
18249;SDS011;27980;52.126;5.572;2023-03-05T09:20:10;4.88;;;1.50;;
18249;SDS011;27980;52.126;5.572;2023-03-05T09:22:37;2.95;;;1.23;;
18249;SDS011;27980;52.126;5.572;2023-03-05T09:25:05;5.10;;;1.48;;
18249;SDS011;27980;52.126;5.572;2023-03-05T09:27:32;2.08;;;1.48;;
18249;SDS011;27980;52.126;5.572;2023-03-05T09:29:59;2.47;;;1.38;;
18249;SDS011;27980;52.126;5.572;2023-03-05T09:32:27;3.40;;;1.27;;
18249;SDS011;27980;52.126;5.572;2023-03-05T09:34:53;3.08;;;1.40;;
18249;SDS011;27980;52.126;5.572;2023-03-05T09:37:22;3.55;;;1.63;;
18249;SDS011;27980;52.126;5.572;2023-03-05T09:39:48;2.42;;;1.38;;
18249;SDS011;27980;52.126;5.572;2023-03-05T09:42:27;4.53;;;1.80;;
18249;SDS011;27980;52.126;5.572;2023-03-05T09:44:56;3.80;;;1.67;;
18249;SDS011;27980;52.126;5.572;2023-03-05T09:47:32;2.33;;;1.45;;
18249;SDS011;27980;52.126;5.572;2023-03-05T09:50:04;3.88;;;1.60;;
18249;SDS011;27980;52.126;5.572;2023-03-05T09:52:36;2.83;;;1.45;;
18249;SDS011;27980;52.126;5.572;2023-03-05T09:55:04;2.78;;;1.90;;
18249;SDS011;27980;52.126;5.572;2023-03-05T09:57:38;5.40;;;2.17;;
18249;SDS011;27980;52.126;5.572;2023-03-05T10:00:10;4.00;;;1.50;;
18249;SDS011;27980;52.126;5.572;2023-03-05T10:02:48;4.82;;;1.90;;
18249;SDS011;27980;52.126;5.572;2023-03-05T10:05:18;4.30;;;1.95;;
18249;SDS011;27980;52.126;5.572;2023-03-05T10:07:49;5.28;;;1.90;;
18249;SDS011;27980;52.126;5.572;2023-03-05T10:10:19;2.72;;;1.50;;
18249;SDS011;27980;52.126;5.572;2023-03-05T10:12:50;4.40;;;1.73;;
18249;SDS011;27980;52.126;5.572;2023-03-05T10:15:20;6.05;;;1.90;;
18249;SDS011;27980;52.126;5.572;2023-03-05T10:20:47;1.98;;;1.42;;
18249;SDS011;27980;52.126;5.572;2023-03-05T10:23:27;2.35;;;1.42;;
18249;SDS011;27980;52.126;5.572;2023-03-05T10:26:01;3.40;;;1.45;;
18249;SDS011;27980;52.126;5.572;2023-03-05T10:28:30;2.65;;;1.60;;
18249;SDS011;27980;52.126;5.572;2023-03-05T10:31:08;4.00;;;1.60;;
18249;SDS011;27980;52.126;5.572;2023-03-05T10:33:41;2.78;;;1.60;;
18249;SDS011;27980;52.126;5.572;2023-03-05T10:36:28;4.75;;;1.67;;
18249;SDS011;27980;52.126;5.572;2023-03-05T10:41:54;3.00;;;1.45;;
18249;SDS011;27980;52.126;5.572;2023-03-05T10:44:28;3.83;;;1.60;;
18249;SDS011;27980;52.126;5.572;2023-03-05T10:46:58;2.85;;;1.40;;
18249;SDS011;27980;52.126;5.572;2023-03-05T10:49:29;2.80;;;1.48;;
18249;SDS011;27980;52.126;5.572;2023-03-05T10:52:00;2.65;;;1.17;;
18249;SDS011;27980;52.126;5.572;2023-03-05T10:54:29;1.88;;;1.23;;
18249;SDS011;27980;52.126;5.572;2023-03-05T10:57:07;3.25;;;1.30;;
18249;SDS011;27980;52.126;5.572;2023-03-05T10:59:39;1.80;;;1.10;;
18249;SDS011;27980;52.126;5.572;2023-03-05T11:02:07;2.55;;;1.08;;
18249;SDS011;27980;52.126;5.572;2023-03-05T11:04:34;2.10;;;0.98;;
18249;SDS011;27980;52.126;5.572;2023-03-05T11:07:34;1.80;;;0.90;;
18249;SDS011;27980;52.126;5.572;2023-03-05T11:10:15;4.57;;;1.17;;
18249;SDS011;27980;52.126;5.572;2023-03-05T11:12:41;2.03;;;1.10;;
18249;SDS011;27980;52.126;5.572;2023-03-05T11:18:05;2.70;;;1.15;;
18249;SDS011;27980;52.126;5.572;2023-03-05T11:20:33;0.82;;;0.80;;
18249;SDS011;27980;52.126;5.572;2023-03-05T11:23:01;1.45;;;0.95;;
18249;SDS011;27980;52.126;5.572;2023-03-05T11:25:30;2.20;;;0.80;;
18249;SDS011;27980;52.126;5.572;2023-03-05T11:27:58;1.20;;;0.80;;
18249;SDS011;27980;52.126;5.572;2023-03-05T11:30:26;2.35;;;1.00;;
18249;SDS011;27980;52.126;5.572;2023-03-05T11:33:07;2.15;;;0.98;;
18249;SDS011;27980;52.126;5.572;2023-03-05T11:35:34;2.10;;;1.00;;
18249;SDS011;27980;52.126;5.572;2023-03-05T11:38:01;2.78;;;0.90;;
18249;SDS011;27980;52.126;5.572;2023-03-05T11:40:29;2.88;;;0.80;;
18249;SDS011;27980;52.126;5.572;2023-03-05T11:42:57;4.55;;;0.95;;
18249;SDS011;27980;52.126;5.572;2023-03-05T11:45:26;2.00;;;0.88;;
18249;SDS011;27980;52.126;5.572;2023-03-05T11:47:54;1.83;;;0.88;;
18249;SDS011;27980;52.126;5.572;2023-03-05T11:50:22;1.73;;;1.00;;
18249;SDS011;27980;52.126;5.572;2023-03-05T11:52:51;2.67;;;1.30;;
18249;SDS011;27980;52.126;5.572;2023-03-05T11:55:20;1.15;;;0.60;;
18249;SDS011;27980;52.126;5.572;2023-03-05T11:57:48;4.32;;;1.05;;
18249;SDS011;27980;52.126;5.572;2023-03-05T12:00:18;5.00;;;0.82;;
18249;SDS011;27980;52.126;5.572;2023-03-05T12:02:47;3.92;;;1.10;;
18249;SDS011;27980;52.126;5.572;2023-03-05T12:05:15;2.35;;;0.88;;
18249;SDS011;27980;52.126;5.572;2023-03-05T12:07:43;2.40;;;0.93;;
18249;SDS011;27980;52.126;5.572;2023-03-05T12:10:13;1.98;;;0.65;;
18249;SDS011;27980;52.126;5.572;2023-03-05T12:12:45;2.72;;;0.90;;
18249;SDS011;27980;52.126;5.572;2023-03-05T12:15:34;1.85;;;0.90;;
18249;SDS011;27980;52.126;5.572;2023-03-05T12:18:07;1.77;;;0.80;;
18249;SDS011;27980;52.126;5.572;2023-03-05T12:20:40;4.53;;;1.17;;
18249;SDS011;27980;52.126;5.572;2023-03-05T12:23:10;3.08;;;0.90;;
18249;SDS011;27980;52.126;5.572;2023-03-05T12:25:43;1.65;;;0.75;;
18249;SDS011;27980;52.126;5.572;2023-03-05T12:28:11;1.48;;;0.68;;
18249;SDS011;27980;52.126;5.572;2023-03-05T12:30:57;2.08;;;0.85;;
18249;SDS011;27980;52.126;5.572;2023-03-05T12:33:29;2.15;;;0.90;;
18249;SDS011;27980;52.126;5.572;2023-03-05T12:38:39;1.92;;;0.80;;
18249;SDS011;27980;52.126;5.572;2023-03-05T12:46:34;1.85;;;0.70;;
18249;SDS011;27980;52.126;5.572;2023-03-05T12:49:10;2.60;;;0.88;;
18249;SDS011;27980;52.126;5.572;2023-03-05T12:51:53;2.45;;;0.65;;
18249;SDS011;27980;52.126;5.572;2023-03-05T12:54:27;3.40;;;0.93;;
18249;SDS011;27980;52.126;5.572;2023-03-05T12:56:55;1.65;;;0.70;;
18249;SDS011;27980;52.126;5.572;2023-03-05T12:59:23;1.65;;;0.80;;
18249;SDS011;27980;52.126;5.572;2023-03-05T13:01:52;2.25;;;0.80;;
18249;SDS011;27980;52.126;5.572;2023-03-05T13:04:22;2.42;;;0.80;;
18249;SDS011;27980;52.126;5.572;2023-03-05T13:06:56;4.03;;;1.00;;
18249;SDS011;27980;52.126;5.572;2023-03-05T13:09:25;2.92;;;0.90;;
18249;SDS011;27980;52.126;5.572;2023-03-05T13:11:54;2.45;;;0.80;;
18249;SDS011;27980;52.126;5.572;2023-03-05T13:14:28;1.90;;;0.80;;
18249;SDS011;27980;52.126;5.572;2023-03-05T13:16:56;2.67;;;0.90;;
18249;SDS011;27980;52.126;5.572;2023-03-05T13:19:23;3.35;;;0.88;;
18249;SDS011;27980;52.126;5.572;2023-03-05T13:21:56;2.58;;;0.70;;
18249;SDS011;27980;52.126;5.572;2023-03-05T13:24:22;2.25;;;0.90;;
18249;SDS011;27980;52.126;5.572;2023-03-05T13:26:49;1.27;;;0.70;;
18249;SDS011;27980;52.126;5.572;2023-03-05T13:29:16;3.45;;;0.80;;
18249;SDS011;27980;52.126;5.572;2023-03-05T13:31:44;2.83;;;0.70;;
18249;SDS011;27980;52.126;5.572;2023-03-05T13:34:14;2.42;;;0.90;;
18249;SDS011;27980;52.126;5.572;2023-03-05T13:36:54;2.65;;;0.85;;
18249;SDS011;27980;52.126;5.572;2023-03-05T13:39:24;1.63;;;0.80;;
18249;SDS011;27980;52.126;5.572;2023-03-05T13:41:54;1.58;;;0.82;;
18249;SDS011;27980;52.126;5.572;2023-03-05T13:44:22;1.38;;;0.70;;
18249;SDS011;27980;52.126;5.572;2023-03-05T13:46:48;2.38;;;1.10;;
18249;SDS011;27980;52.126;5.572;2023-03-05T13:49:20;2.97;;;0.85;;
18249;SDS011;27980;52.126;5.572;2023-03-05T13:51:47;3.17;;;1.00;;
18249;SDS011;27980;52.126;5.572;2023-03-05T13:54:15;1.02;;;0.60;;
18249;SDS011;27980;52.126;5.572;2023-03-05T13:56:49;1.52;;;0.88;;
18249;SDS011;27980;52.126;5.572;2023-03-05T13:59:16;3.42;;;0.90;;
18249;SDS011;27980;52.126;5.572;2023-03-05T14:01:43;3.00;;;0.90;;
18249;SDS011;27980;52.126;5.572;2023-03-05T14:04:16;2.85;;;0.90;;
18249;SDS011;27980;52.126;5.572;2023-03-05T14:06:47;2.00;;;0.90;;
18249;SDS011;27980;52.126;5.572;2023-03-05T14:09:18;1.70;;;0.90;;
18249;SDS011;27980;52.126;5.572;2023-03-05T14:11:52;2.65;;;1.23;;
18249;SDS011;27980;52.126;5.572;2023-03-05T14:14:20;3.40;;;0.90;;
18249;SDS011;27980;52.126;5.572;2023-03-05T14:16:47;1.95;;;0.88;;
18249;SDS011;27980;52.126;5.572;2023-03-05T14:19:27;1.35;;;0.70;;
18249;SDS011;27980;52.126;5.572;2023-03-05T14:21:57;1.98;;;1.02;;
18249;SDS011;27980;52.126;5.572;2023-03-05T14:24:24;1.50;;;0.98;;
18249;SDS011;27980;52.126;5.572;2023-03-05T14:26:52;1.65;;;0.90;;
18249;SDS011;27980;52.126;5.572;2023-03-05T14:29:20;1.45;;;0.90;;
18249;SDS011;27980;52.126;5.572;2023-03-05T14:31:49;4.63;;;2.70;;
18249;SDS011;27980;52.126;5.572;2023-03-05T14:34:20;1.58;;;1.02;;
18249;SDS011;27980;52.126;5.572;2023-03-05T14:36:47;2.45;;;1.00;;
18249;SDS011;27980;52.126;5.572;2023-03-05T14:39:29;1.70;;;0.90;;
18249;SDS011;27980;52.126;5.572;2023-03-05T14:44:37;1.50;;;0.98;;
18249;SDS011;27980;52.126;5.572;2023-03-05T14:47:09;1.17;;;0.90;;
18249;SDS011;27980;52.126;5.572;2023-03-05T14:49:35;2.58;;;1.13;;
18249;SDS011;27980;52.126;5.572;2023-03-05T14:52:01;3.83;;;1.10;;
18249;SDS011;27980;52.126;5.572;2023-03-05T14:54:33;1.98;;;0.93;;
18249;SDS011;27980;52.126;5.572;2023-03-05T14:57:01;1.90;;;0.85;;
18249;SDS011;27980;52.126;5.572;2023-03-05T14:59:28;2.28;;;1.08;;
18249;SDS011;27980;52.126;5.572;2023-03-05T15:01:55;3.30;;;1.25;;
18249;SDS011;27980;52.126;5.572;2023-03-05T15:04:22;2.45;;;1.10;;
18249;SDS011;27980;52.126;5.572;2023-03-05T15:06:48;1.73;;;0.90;;
18249;SDS011;27980;52.126;5.572;2023-03-05T15:09:15;3.25;;;1.10;;
18249;SDS011;27980;52.126;5.572;2023-03-05T15:11:45;1.60;;;1.10;;